Time;durP1;ratioP1;P1;durP2;ratioP2;P2;SDS_P1;SDS_P2;PMS_P1;PMS_P2;Temp;Humidity;BMP_temperature;BMP_pressure;BME280_temperature;BME280_humidity;BME280_pressure;Samples;Min_cycle;Max_cycle;Signal;HPM_P1;HPM_P2
2023/09/17 00:01:15;;;;;;;9.77;5.30;;;18.50;99.90;;;;;;5004560;28;20430;-70
2023/09/17 00:04:01;;;;;;;5.67;4.90;;;18.50;99.90;;;;;;5000398;28;20444;-69
2023/09/17 00:06:46;;;;;;;6.43;5.83;;;18.60;99.90;;;;;;5005144;28;20470;-69
2023/09/17 00:09:32;;;;;;;7.63;5.50;;;18.60;99.90;;;;;;5007584;28;20574;-69
2023/09/17 00:12:19;;;;;;;6.70;5.50;;;18.60;99.90;;;;;;5008478;28;20561;-69
2023/09/17 00:15:06;;;;;;;8.70;5.53;;;18.60;99.90;;;;;;5005607;28;20565;-69
2023/09/17 00:17:52;;;;;;;5.80;4.97;;;18.70;99.90;;;;;;5001987;28;20818;-69
2023/09/17 00:20:37;;;;;;;11.97;5.90;;;18.60;99.90;;;;;;5005671;28;20464;-69
2023/09/17 00:23:23;;;;;;;7.57;5.63;;;18.60;99.90;;;;;;5001530;28;20562;-69
2023/09/17 00:26:09;;;;;;;6.83;5.50;;;18.50;99.90;;;;;;5005004;28;20997;-69
2023/09/17 00:28:56;;;;;;;5.87;5.23;;;18.40;99.90;;;;;;5002966;28;20505;-69
2023/09/17 00:31:41;;;;;;;7.70;5.00;;;18.40;99.90;;;;;;5007036;28;20502;-69
2023/09/17 00:34:27;;;;;;;6.70;6.00;;;18.40;99.90;;;;;;4998179;28;20507;-69
2023/09/17 00:37:13;;;;;;;6.03;5.43;;;18.40;99.90;;;;;;5007082;28;20536;-69
2023/09/17 00:39:59;;;;;;;8.13;6.23;;;18.40;99.90;;;;;;5007235;28;20995;-68
2023/09/17 00:42:45;;;;;;;6.13;5.10;;;18.30;99.90;;;;;;5005937;28;20453;-69
2023/09/17 00:45:32;;;;;;;7.03;5.13;;;18.30;99.90;;;;;;5001266;28;20572;-69
2023/09/17 00:48:18;;;;;;;10.27;6.77;;;18.20;99.90;;;;;;5004348;28;20470;-69
2023/09/17 00:51:04;;;;;;;7.17;5.43;;;18.20;99.90;;;;;;5007423;28;20451;-69
2023/09/17 00:53:50;;;;;;;7.77;5.50;;;18.20;99.90;;;;;;5001883;28;20418;-69
2023/09/17 00:56:37;;;;;;;8.20;5.37;;;18.00;99.90;;;;;;4997810;28;20471;-69
2023/09/17 00:59:23;;;;;;;8.23;5.50;;;17.90;99.90;;;;;;5004800;28;20447;-69
2023/09/17 01:02:10;;;;;;;8.47;5.10;;;18.10;99.90;;;;;;5002526;28;20820;-69
2023/09/17 01:04:56;;;;;;;7.97;4.63;;;18.10;99.90;;;;;;5003344;28;20460;-69
2023/09/17 01:07:42;;;;;;;5.23;4.70;;;18.20;99.90;;;;;;5008030;28;20429;-69
2023/09/17 01:10:28;;;;;;;6.47;4.83;;;18.20;99.90;;;;;;4999574;28;20426;-69
2023/09/17 01:13:14;;;;;;;9.83;5.77;;;18.10;99.90;;;;;;5008920;28;20436;-69
2023/09/17 01:16:00;;;;;;;11.60;4.90;;;18.10;99.90;;;;;;4995807;28;22719;-69
2023/09/17 01:18:47;;;;;;;10.30;5.57;;;18.10;99.90;;;;;;4997289;28;20541;-69
2023/09/17 01:21:38;;;;;;;6.23;5.00;;;18.00;99.90;;;;;;5004726;28;20458;-69
2023/09/17 01:24:29;;;;;;;11.03;5.83;;;17.80;99.90;;;;;;4996045;28;20596;-69
2023/09/17 01:27:18;;;;;;;6.23;5.27;;;17.70;99.90;;;;;;5001985;28;20433;-69
2023/09/17 01:30:05;;;;;;;9.70;5.80;;;17.60;99.90;;;;;;5007315;28;20430;-69
2023/09/17 01:32:51;;;;;;;6.90;6.00;;;17.60;99.90;;;;;;4999630;28;20452;-70
2023/09/17 01:35:47;;;;;;;12.73;5.90;;;17.50;99.90;;;;;;5005242;28;20481;-69
2023/09/17 01:38:38;;;;;;;17.73;6.57;;;17.50;99.90;;;;;;5003560;28;20570;-69
2023/09/17 01:41:27;;;;;;;7.00;6.30;;;17.50;99.90;;;;;;5001028;28;20836;-69
2023/09/17 01:44:15;;;;;;;10.30;6.50;;;17.60;99.90;;;;;;5000310;28;20854;-69
2023/09/17 01:47:03;;;;;;;14.23;6.50;;;17.60;99.90;;;;;;5002140;28;20544;-69
2023/09/17 01:49:49;;;;;;;8.17;6.27;;;17.60;99.90;;;;;;5005337;28;20447;-69
2023/09/17 01:52:35;;;;;;;11.97;6.37;;;17.60;99.90;;;;;;5001480;28;20629;-69
2023/09/17 01:55:22;;;;;;;8.30;6.33;;;17.60;99.90;;;;;;5009568;28;20449;-70
2023/09/17 01:58:09;;;;;;;7.40;6.70;;;17.70;99.90;;;;;;5003224;28;20471;-69
2023/09/17 02:00:57;;;;;;;9.27;5.97;;;17.60;99.90;;;;;;4996962;28;20468;-69
2023/09/17 02:03:42;;;;;;;8.93;6.13;;;17.50;99.90;;;;;;5006029;28;20429;-69
2023/09/17 02:06:28;;;;;;;14.03;6.53;;;17.60;99.90;;;;;;5006313;28;20467;-69
2023/09/17 02:09:14;;;;;;;7.00;5.90;;;17.70;99.90;;;;;;4998604;28;20421;-69
2023/09/17 02:11:59;;;;;;;5.97;5.37;;;17.80;99.90;;;;;;5005326;28;20650;-69
2023/09/17 02:14:45;;;;;;;6.93;5.87;;;17.90;99.90;;;;;;5008212;28;20539;-69
2023/09/17 02:17:32;;;;;;;18.10;6.03;;;18.00;99.90;;;;;;5005247;28;20480;-69
2023/09/17 02:20:17;;;;;;;5.90;5.30;;;18.00;99.90;;;;;;5001713;28;20971;-69
2023/09/17 02:23:03;;;;;;;8.63;5.20;;;18.20;99.90;;;;;;5007405;28;20447;-69
2023/09/17 02:25:49;;;;;;;7.63;6.83;;;18.10;99.90;;;;;;5001007;28;20559;-69
2023/09/17 02:28:34;;;;;;;11.03;5.83;;;18.10;99.90;;;;;;5001289;28;20422;-69
2023/09/17 02:31:20;;;;;;;10.07;5.40;;;18.10;99.90;;;;;;5005010;28;20567;-69
2023/09/17 02:34:07;;;;;;;8.10;5.53;;;18.10;99.90;;;;;;5009051;28;20454;-69
2023/09/17 02:36:52;;;;;;;10.10;5.97;;;18.10;99.90;;;;;;5001547;28;20528;-69
2023/09/17 02:39:38;;;;;;;6.90;5.77;;;18.10;99.90;;;;;;5006199;28;20468;-70
2023/09/17 02:42:24;;;;;;;6.60;5.90;;;18.20;99.90;;;;;;5009747;28;20821;-70
2023/09/17 02:45:11;;;;;;;9.30;6.03;;;18.10;99.90;;;;;;5007915;28;20451;-69
2023/09/17 02:47:58;;;;;;;6.40;5.07;;;18.20;99.90;;;;;;5005567;28;20468;-69
2023/09/17 02:50:45;;;;;;;6.50;5.30;;;18.30;99.90;;;;;;4999649;28;20456;-69
2023/09/17 02:53:30;;;;;;;10.13;5.70;;;18.20;99.90;;;;;;5008026;28;20438;-69
2023/09/17 02:56:16;;;;;;;9.27;5.57;;;18.20;99.90;;;;;;5010015;28;20483;-69
2023/09/17 02:59:02;;;;;;;11.40;5.97;;;18.10;99.90;;;;;;5003815;28;20465;-70
2023/09/17 03:01:48;;;;;;;6.43;5.47;;;18.10;99.90;;;;;;4998723;28;20432;-69
2023/09/17 03:04:34;;;;;;;9.10;6.10;;;18.10;99.90;;;;;;5002102;28;20576;-69
2023/09/17 03:07:21;;;;;;;6.53;5.80;;;18.20;99.90;;;;;;5003265;28;20484;-69
2023/09/17 03:10:11;;;;;;;12.13;7.30;;;18.20;99.90;;;;;;5009672;28;20452;-69
2023/09/17 03:12:57;;;;;;;10.33;5.73;;;18.20;99.90;;;;;;5000811;28;20463;-70
2023/09/17 03:15:44;;;;;;;5.73;5.20;;;18.20;99.90;;;;;;4998741;28;20459;-69
2023/09/17 03:18:30;;;;;;;6.30;5.20;;;18.20;99.90;;;;;;5000386;28;20452;-70
2023/09/17 03:21:16;;;;;;;6.90;5.70;;;18.10;99.90;;;;;;5005488;28;20969;-69
2023/09/17 03:24:03;;;;;;;8.87;5.63;;;18.10;99.90;;;;;;5004436;28;20929;-69
2023/09/17 03:26:49;;;;;;;9.57;6.93;;;18.20;99.90;;;;;;4998355;28;20463;-70
2023/09/17 03:29:35;;;;;;;7.60;5.63;;;18.30;99.90;;;;;;5003383;28;20454;-70
2023/09/17 03:32:21;;;;;;;12.90;5.73;;;18.30;99.90;;;;;;5004546;28;21004;-70
2023/09/17 03:35:08;;;;;;;12.60;6.67;;;18.40;99.90;;;;;;5008670;28;20469;-69
2023/09/17 03:37:53;;;;;;;11.37;5.90;;;18.30;99.90;;;;;;4998833;28;21088;-69
2023/09/17 03:40:40;;;;;;;7.90;6.00;;;18.30;99.90;;;;;;5005882;28;20510;-69
2023/09/17 03:43:27;;;;;;;7.20;5.90;;;18.20;99.90;;;;;;5003930;28;20438;-70
2023/09/17 03:46:12;;;;;;;6.77;5.57;;;18.20;99.90;;;;;;5008157;28;20468;-69
2023/09/17 03:48:58;;;;;;;7.63;6.30;;;18.20;99.90;;;;;;4999300;28;20471;-69
2023/09/17 03:51:44;;;;;;;6.60;5.90;;;18.30;99.90;;;;;;5003607;28;20472;-69
2023/09/17 03:54:29;;;;;;;13.87;5.73;;;18.40;99.90;;;;;;5007286;28;20420;-69
2023/09/17 03:57:16;;;;;;;8.33;6.37;;;18.40;99.90;;;;;;5001559;28;20851;-70
2023/09/17 04:00:06;;;;;;;11.10;6.33;;;18.40;99.90;;;;;;5001102;28;20454;-69
2023/09/17 04:02:54;;;;;;;8.37;6.20;;;18.50;99.90;;;;;;5007055;28;20553;-70
2023/09/17 04:05:40;;;;;;;13.30;6.00;;;18.50;99.90;;;;;;5004646;28;20552;-70
2023/09/17 04:08:26;;;;;;;8.97;5.90;;;18.40;99.90;;;;;;5002115;28;20951;-70
2023/09/17 04:11:15;;;;;;;10.50;5.83;;;18.30;99.90;;;;;;5006283;28;20463;-70
2023/09/17 04:14:04;;;;;;;7.77;6.00;;;18.40;99.90;;;;;;5003442;28;20463;-69
2023/09/17 04:16:50;;;;;;;6.27;5.67;;;18.40;99.90;;;;;;4997568;28;20451;-70
2023/09/17 04:19:35;;;;;;;9.13;6.07;;;18.30;99.90;;;;;;5003647;28;20442;-70
2023/09/17 04:22:21;;;;;;;7.80;6.37;;;18.20;99.90;;;;;;4999747;28;20450;-70
2023/09/17 04:25:08;;;;;;;12.10;6.77;;;18.20;99.90;;;;;;4999593;28;20423;-70
2023/09/17 04:27:55;;;;;;;8.90;6.07;;;18.20;99.90;;;;;;5005810;28;20457;-69
2023/09/17 04:30:42;;;;;;;6.30;5.70;;;18.10;99.90;;;;;;5002706;28;20543;-69
2023/09/17 04:33:28;;;;;;;6.40;5.40;;;18.10;99.90;;;;;;5004188;28;20532;-70
2023/09/17 04:36:13;;;;;;;6.60;6.00;;;18.10;99.90;;;;;;5003028;28;20480;-69
2023/09/17 04:38:59;;;;;;;5.80;5.30;;;18.10;99.90;;;;;;4999083;28;20447;-69
2023/09/17 04:41:46;;;;;;;8.63;6.07;;;18.10;99.90;;;;;;5004404;28;20455;-69
2023/09/17 04:44:31;;;;;;;6.47;5.83;;;18.10;99.90;;;;;;4998546;28;20523;-69
2023/09/17 04:47:19;;;;;;;6.57;5.90;;;18.00;99.90;;;;;;5005192;28;20467;-69
2023/09/17 04:50:07;;;;;;;7.20;5.90;;;17.90;99.90;;;;;;5000258;28;20448;-69
2023/09/17 04:52:53;;;;;;;6.33;5.73;;;17.80;99.90;;;;;;5008248;28;21101;-70
2023/09/17 04:55:39;;;;;;;11.60;5.80;;;17.80;99.90;;;;;;5008055;28;20448;-69
2023/09/17 04:58:25;;;;;;;8.83;6.20;;;17.80;99.90;;;;;;5003687;28;20443;-69
2023/09/17 05:01:12;;;;;;;7.70;6.90;;;17.70;99.90;;;;;;5002967;28;20445;-69
2023/09/17 05:03:59;;;;;;;9.03;6.87;;;17.60;99.90;;;;;;5003089;28;20454;-70
2023/09/17 05:06:45;;;;;;;6.93;6.23;;;17.60;99.90;;;;;;5008565;28;20467;-69
2023/09/17 05:09:30;;;;;;;9.90;6.30;;;17.60;99.90;;;;;;5004207;28;20416;-69
2023/09/17 05:12:16;;;;;;;7.07;6.27;;;17.60;99.90;;;;;;5003415;28;20966;-69
2023/09/17 05:15:02;;;;;;;8.10;5.70;;;17.60;99.90;;;;;;5009375;28;21501;-69
2023/09/17 05:17:49;;;;;;;7.03;6.03;;;17.70;99.90;;;;;;5000423;28;20505;-69
2023/09/17 05:20:37;;;;;;;7.00;6.30;;;17.70;99.90;;;;;;5005875;28;20447;-70
2023/09/17 05:23:24;;;;;;;8.47;6.20;;;17.70;99.90;;;;;;5005882;28;20666;-69
2023/09/17 05:26:09;;;;;;;6.87;6.17;;;17.60;99.90;;;;;;5008937;28;20520;-69
2023/09/17 05:28:55;;;;;;;8.00;6.20;;;17.60;99.90;;;;;;5002395;28;20816;-69
2023/09/17 05:31:41;;;;;;;8.63;5.67;;;17.60;99.90;;;;;;5002390;28;20455;-70
2023/09/17 05:34:26;;;;;;;6.20;5.60;;;17.60;99.90;;;;;;5001527;28;20526;-69
2023/09/17 05:37:13;;;;;;;7.37;6.30;;;17.70;99.90;;;;;;5002184;28;20609;-69
2023/09/17 05:39:59;;;;;;;6.90;5.90;;;17.70;99.90;;;;;;5003116;28;20418;-69
2023/09/17 05:42:44;;;;;;;7.63;5.27;;;17.70;99.90;;;;;;5003595;28;20519;-69
2023/09/17 05:45:30;;;;;;;6.93;6.23;;;17.60;99.90;;;;;;5002794;28;20451;-70
2023/09/17 05:48:16;;;;;;;6.90;6.20;;;17.60;99.90;;;;;;5000193;28;20444;-69
2023/09/17 05:51:03;;;;;;;10.83;6.20;;;17.70;99.90;;;;;;4995718;28;20450;-70
2023/09/17 05:53:50;;;;;;;6.90;6.23;;;17.50;99.90;;;;;;5004009;28;21877;-69
2023/09/17 05:56:35;;;;;;;8.73;5.97;;;17.60;99.90;;;;;;5000970;28;20561;-70
2023/09/17 05:59:21;;;;;;;6.87;6.17;;;17.60;99.90;;;;;;5008368;28;20450;-70
2023/09/17 06:02:07;;;;;;;6.30;5.63;;;17.70;99.90;;;;;;5000849;28;20432;-69
2023/09/17 06:04:54;;;;;;;9.20;6.63;;;17.70;99.90;;;;;;5006160;28;20427;-68
2023/09/17 06:07:39;;;;;;;7.00;6.30;;;17.80;99.90;;;;;;5005225;28;20502;-70
2023/09/17 06:10:27;;;;;;;7.80;7.00;;;17.70;99.90;;;;;;5003027;28;20964;-70
2023/09/17 06:13:12;;;;;;;8.70;7.50;;;17.80;99.90;;;;;;4999786;28;20443;-69
2023/09/17 06:15:58;;;;;;;8.43;7.53;;;17.80;99.90;;;;;;5006290;28;20451;-70
2023/09/17 06:18:43;;;;;;;8.27;6.87;;;17.90;99.90;;;;;;5006099;28;20497;-69
2023/09/17 06:21:29;;;;;;;9.80;6.80;;;17.90;99.90;;;;;;4998424;28;20484;-70
2023/09/17 06:24:15;;;;;;;8.23;7.17;;;18.00;99.90;;;;;;5010915;28;20423;-69
2023/09/17 06:27:03;;;;;;;10.23;7.20;;;18.00;99.90;;;;;;5005264;28;20464;-70
2023/09/17 06:29:49;;;;;;;8.17;7.37;;;18.00;99.90;;;;;;5008745;28;20448;-69
2023/09/17 06:32:35;;;;;;;10.17;6.30;;;18.00;99.90;;;;;;5009183;28;20475;-70
2023/09/17 06:35:20;;;;;;;7.37;6.23;;;18.10;99.90;;;;;;5008422;28;20503;-69
2023/09/17 06:38:06;;;;;;;8.33;7.30;;;18.20;99.90;;;;;;5005803;28;20475;-69
2023/09/17 06:40:51;;;;;;;8.83;6.97;;;18.30;99.90;;;;;;5008563;28;20448;-69
2023/09/17 06:43:38;;;;;;;6.77;6.03;;;18.30;99.90;;;;;;5006461;28;20937;-69
2023/09/17 06:46:24;;;;;;;8.33;6.03;;;18.30;99.90;;;;;;5010503;28;20593;-70
2023/09/17 06:49:10;;;;;;;7.50;6.67;;;18.30;99.90;;;;;;5005646;28;20527;-69
2023/09/17 06:51:56;;;;;;;9.57;7.20;;;18.40;99.90;;;;;;5005312;28;20447;-70
2023/09/17 06:54:43;;;;;;;9.60;6.70;;;18.50;99.90;;;;;;5000992;28;20448;-70
2023/09/17 06:57:28;;;;;;;7.07;6.37;;;18.60;99.90;;;;;;5007818;28;20563;-69
2023/09/17 07:00:16;;;;;;;8.30;7.37;;;18.60;99.90;;;;;;5000488;28;20452;-70
2023/09/17 07:03:02;;;;;;;8.77;6.80;;;18.80;99.90;;;;;;4998329;28;20970;-70
2023/09/17 07:05:47;;;;;;;9.63;7.03;;;18.80;99.90;;;;;;5010131;28;20531;-69
2023/09/17 07:08:33;;;;;;;7.80;6.70;;;18.90;99.90;;;;;;5005781;28;20446;-69
2023/09/17 07:11:19;;;;;;;11.93;6.90;;;19.00;99.90;;;;;;5008893;28;20847;-70
2023/09/17 07:14:09;;;;;;;7.87;7.03;;;19.10;99.90;;;;;;5009652;28;20950;-70
2023/09/17 07:16:56;;;;;;;7.43;6.60;;;19.20;99.90;;;;;;5007767;28;20968;-70
2023/09/17 07:19:42;;;;;;;12.87;7.93;;;19.30;99.90;;;;;;5008019;28;20485;-70
2023/09/17 07:22:27;;;;;;;7.97;7.17;;;19.30;99.90;;;;;;5002714;28;20459;-69
2023/09/17 07:25:13;;;;;;;9.57;8.20;;;19.50;99.90;;;;;;5007230;28;20456;-70
2023/09/17 07:28:04;;;;;;;7.57;6.87;;;19.60;99.90;;;;;;5009671;28;20843;-70
2023/09/17 07:30:54;;;;;;;9.57;7.20;;;19.70;99.90;;;;;;4999674;28;20814;-69
2023/09/17 07:33:42;;;;;;;8.00;7.20;;;19.80;99.90;;;;;;5004280;28;20587;-70
2023/09/17 07:36:28;;;;;;;9.20;7.63;;;20.00;99.90;;;;;;5008241;28;20559;-71
2023/09/17 07:39:13;;;;;;;9.73;7.33;;;20.10;99.90;;;;;;5004107;28;20452;-69
2023/09/17 07:41:59;;;;;;;8.63;7.40;;;20.20;99.90;;;;;;5006338;28;20464;-69
2023/09/17 07:44:46;;;;;;;8.77;6.83;;;20.40;99.90;;;;;;5001541;28;20456;-69
2023/09/17 07:47:32;;;;;;;11.23;7.50;;;20.40;99.90;;;;;;5001031;28;20996;-70
2023/09/17 07:50:19;;;;;;;12.43;7.67;;;20.60;99.90;;;;;;5002912;28;20452;-70
2023/09/17 07:53:04;;;;;;;10.03;7.57;;;20.60;99.90;;;;;;5005023;28;20448;-69
2023/09/17 07:55:50;;;;;;;7.73;6.57;;;20.70;99.90;;;;;;5002946;28;20453;-69
2023/09/17 07:58:36;;;;;;;14.43;7.00;;;20.90;99.90;;;;;;5005176;28;20483;-70
2023/09/17 08:01:22;;;;;;;7.80;7.00;;;21.00;99.90;;;;;;5002303;28;20452;-70
2023/09/17 08:04:09;;;;;;;11.37;7.70;;;21.00;99.90;;;;;;4998740;28;20445;-70
2023/09/17 08:06:56;;;;;;;8.13;6.83;;;21.20;99.90;;;;;;5000702;28;20464;-69
2023/09/17 08:09:42;;;;;;;14.03;7.50;;;21.30;99.90;;;;;;5005296;28;20450;-70
2023/09/17 08:12:27;;;;;;;8.70;6.80;;;21.40;99.90;;;;;;5000792;28;20448;-70
2023/09/17 08:15:14;;;;;;;8.00;7.20;;;21.60;99.90;;;;;;5002922;28;20441;-70
2023/09/17 08:18:00;;;;;;;9.77;7.40;;;21.80;99.90;;;;;;4998810;28;20450;-70
2023/09/17 08:20:45;;;;;;;9.40;7.40;;;21.90;99.90;;;;;;5006393;28;20687;-69
2023/09/17 08:23:32;;;;;;;9.30;7.87;;;21.90;99.90;;;;;;5004359;28;20456;-70
2023/09/17 08:26:17;;;;;;;10.43;7.27;;;22.00;99.90;;;;;;5001256;28;20519;-70
2023/09/17 08:29:05;;;;;;;8.47;7.57;;;22.20;99.90;;;;;;5000478;28;20473;-70
2023/09/17 08:31:51;;;;;;;7.97;7.20;;;22.30;99.90;;;;;;5000674;28;20442;-70
2023/09/17 08:34:36;;;;;;;9.17;7.33;;;22.50;99.90;;;;;;4997390;28;20826;-69
2023/09/17 08:37:22;;;;;;;7.70;6.83;;;22.70;99.90;;;;;;4995917;28;20981;-71
2023/09/17 08:40:11;;;;;;;15.30;6.70;;;22.80;99.90;;;;;;4999284;28;20451;-70
2023/09/17 08:42:57;;;;;;;10.20;6.90;;;22.80;99.90;;;;;;5000422;28;20442;-69
2023/09/17 08:45:43;;;;;;;8.73;6.20;;;22.90;99.90;;;;;;5005700;28;20446;-70
2023/09/17 08:48:29;;;;;;;7.63;6.83;;;22.90;99.90;;;;;;5003816;28;20453;-70
2023/09/17 08:51:18;;;;;;;8.63;6.70;;;23.00;99.90;;;;;;5003163;28;20446;-70
2023/09/17 08:54:07;;;;;;;8.30;6.47;;;23.10;99.90;;;;;;5005683;28;20820;-69
2023/09/17 08:56:58;;;;;;;14.63;7.00;;;23.10;99.90;;;;;;5003148;28;20969;-70
2023/09/17 08:59:47;;;;;;;7.63;6.40;;;23.20;99.90;;;;;;5004765;28;20473;-70
2023/09/17 09:02:35;;;;;;;8.03;5.97;;;23.30;99.90;;;;;;5000901;28;20517;-70
2023/09/17 09:05:25;;;;;;;6.90;5.50;;;23.40;99.90;;;;;;5001981;28;20890;-70
2023/09/17 09:08:13;;;;;;;11.13;5.77;;;23.50;99.90;;;;;;5000255;28;20526;-70
2023/09/17 09:10:59;;;;;;;5.70;5.00;;;23.60;99.90;;;;;;5005712;28;20912;-69
2023/09/17 09:13:48;;;;;;;10.20;5.50;;;23.70;99.90;;;;;;5007893;28;20465;-70
2023/09/17 09:16:36;;;;;;;5.77;5.10;;;23.80;99.90;;;;;;5005077;28;20469;-70
2023/09/17 09:19:22;;;;;;;6.10;5.00;;;23.90;99.90;;;;;;5004472;28;20479;-70
2023/09/17 09:22:07;;;;;;;8.40;5.30;;;24.00;99.90;;;;;;5000593;28;20446;-70
2023/09/17 09:24:53;;;;;;;7.70;5.10;;;24.10;99.90;;;;;;5008280;28;20446;-70
2023/09/17 09:27:39;;;;;;;8.47;4.90;;;24.20;99.90;;;;;;5004738;28;20465;-70
2023/09/17 09:30:27;;;;;;;8.90;5.47;;;24.30;99.90;;;;;;5005886;28;20447;-70
2023/09/17 09:33:13;;;;;;;8.10;4.80;;;24.40;99.90;;;;;;5001074;28;20457;-70
2023/09/17 09:36:00;;;;;;;7.87;4.47;;;24.50;99.90;;;;;;5001465;28;20907;-70
2023/09/17 09:38:45;;;;;;;6.20;4.40;;;24.50;94.70;;;;;;4999258;28;20482;-70
2023/09/17 09:41:32;;;;;;;8.53;4.53;;;24.60;97.90;;;;;;5004934;28;20964;-71
2023/09/17 09:44:18;;;;;;;6.83;4.53;;;24.60;95.30;;;;;;5002454;28;20949;-70
2023/09/17 09:47:06;;;;;;;6.73;4.83;;;24.70;95.60;;;;;;5003684;28;20461;-70
2023/09/17 09:49:51;;;;;;;10.70;4.80;;;24.80;96.90;;;;;;5003478;28;20454;-69
2023/09/17 09:52:37;;;;;;;9.40;4.67;;;24.90;97.10;;;;;;5006170;28;20440;-70
2023/09/17 09:55:24;;;;;;;7.20;4.60;;;25.00;96.30;;;;;;5006922;28;20580;-70
2023/09/17 09:58:11;;;;;;;8.47;5.20;;;25.00;93.90;;;;;;5004452;28;20472;-70
2023/09/17 10:00:59;;;;;;;8.33;5.17;;;25.00;91.30;;;;;;5009766;28;20523;-70
2023/09/17 10:03:47;;;;;;;11.43;5.60;;;25.10;92.80;;;;;;5010840;28;20449;-70
2023/09/17 10:06:32;;;;;;;7.97;4.17;;;25.10;93.60;;;;;;5005345;28;20473;-70
2023/09/17 10:09:18;;;;;;;13.73;4.87;;;25.20;93.20;;;;;;5009344;28;20470;-70
2023/09/17 10:12:05;;;;;;;14.40;4.83;;;25.30;89.80;;;;;;5009492;28;20574;-69
2023/09/17 10:14:50;;;;;;;8.00;4.70;;;25.30;81.50;;;;;;5007247;28;20456;-70
2023/09/17 10:17:37;;;;;;;6.73;4.63;;;25.40;84.60;;;;;;5010249;28;20480;-70
2023/09/17 10:20:25;;;;;;;10.60;4.53;;;25.40;82.20;;;;;;5008680;28;20442;-69
2023/09/17 10:23:13;;;;;;;6.17;4.23;;;25.50;82.90;;;;;;5003175;28;20531;-69
2023/09/17 10:26:02;;;;;;;6.80;4.47;;;25.50;82.10;;;;;;5003995;28;20612;-70
2023/09/17 10:28:48;;;;;;;6.77;4.50;;;25.70;82.20;;;;;;5006822;28;20507;-70
2023/09/17 10:31:35;;;;;;;6.07;4.00;;;25.70;80.30;;;;;;4998448;28;20879;-70
2023/09/17 10:34:22;;;;;;;6.80;4.60;;;25.70;80.30;;;;;;5007428;28;20990;-71
2023/09/17 10:37:09;;;;;;;10.63;5.13;;;25.80;79.70;;;;;;5007451;28;20465;-71
2023/09/17 10:39:56;;;;;;;8.30;5.07;;;25.80;79.20;;;;;;5003639;28;20728;-70
2023/09/17 10:42:43;;;;;;;9.60;5.00;;;26.00;79.30;;;;;;5000935;28;20462;-71
2023/09/17 10:45:32;;;;;;;7.60;4.60;;;26.10;75.40;;;;;;5001025;28;20454;-70
2023/09/17 10:48:20;;;;;;;7.33;4.77;;;26.10;70.80;;;;;;5008916;28;20437;-70
2023/09/17 10:51:06;;;;;;;8.23;4.80;;;26.10;73.30;;;;;;5008042;28;20598;-70
2023/09/17 10:53:53;;;;;;;12.17;4.53;;;26.20;71.80;;;;;;5008694;28;20899;-70
2023/09/17 10:56:41;;;;;;;8.27;4.50;;;26.30;72.30;;;;;;5008697;28;20480;-70
2023/09/17 10:59:27;;;;;;;12.80;4.70;;;26.30;69.10;;;;;;5005275;28;21091;-70
2023/09/17 11:02:14;;;;;;;9.93;5.37;;;26.30;69.80;;;;;;5005741;28;20440;-70
2023/09/17 11:05:04;;;;;;;6.97;4.20;;;26.40;71.10;;;;;;5008133;28;20455;-70
2023/09/17 11:07:51;;;;;;;12.83;4.77;;;26.40;68.50;;;;;;5011736;28;20459;-70
2023/09/17 11:10:41;;;;;;;16.30;5.20;;;26.40;68.00;;;;;;5003272;28;20463;-70
2023/09/17 11:13:27;;;;;;;6.00;4.30;;;26.40;69.80;;;;;;5008476;28;20450;-70
2023/09/17 11:16:15;;;;;;;6.50;4.50;;;26.50;75.30;;;;;;5005229;28;21140;-70
2023/09/17 11:19:09;;;;;;;9.93;5.60;;;26.50;68.20;;;;;;5002459;28;20486;-70
2023/09/17 11:22:10;;;;;;;12.17;4.40;;;26.50;62.90;;;;;;5011179;28;21009;-70
2023/09/17 11:24:55;;;;;;;13.07;4.60;;;26.40;63.60;;;;;;5005264;28;20898;-70
2023/09/17 11:27:49;;;;;;;13.37;4.93;;;26.40;65.00;;;;;;5010974;28;20491;-70
2023/09/17 11:30:59;;;;;;;11.33;4.50;;;26.40;68.10;;;;;;5003089;28;20523;-70
2023/09/17 11:33:47;;;;;;;10.40;4.60;;;26.40;63.00;;;;;;5007432;28;20475;-69
2023/09/17 11:36:34;;;;;;;10.80;4.00;;;26.40;64.20;;;;;;5004867;28;20626;-70
2023/09/17 11:39:22;;;;;;;11.73;4.93;;;26.40;64.80;;;;;;5005392;28;20912;-70
2023/09/17 11:42:11;;;;;;;7.23;3.97;;;26.40;60.50;;;;;;5003750;28;20461;-70
2023/09/17 11:44:58;;;;;;;9.17;4.90;;;26.40;62.30;;;;;;5004945;28;20464;-70
2023/09/17 11:47:46;;;;;;;8.40;4.73;;;26.50;68.10;;;;;;5009479;28;20479;-70
2023/09/17 11:50:31;;;;;;;8.10;4.47;;;26.50;62.50;;;;;;5000613;28;20443;-70
2023/09/17 11:53:19;;;;;;;6.23;4.63;;;26.50;62.00;;;;;;5004539;28;20581;-70
2023/09/17 11:56:04;;;;;;;7.00;4.97;;;26.60;64.30;;;;;;5000841;28;20476;-69
2023/09/17 11:59:01;;;;;;;9.60;4.20;;;26.60;63.80;;;;;;5001977;28;20552;-70
2023/09/17 12:01:52;;;;;;;25.93;4.70;;;26.70;64.30;;;;;;5002961;28;20462;-70
2023/09/17 12:04:40;;;;;;;11.37;4.13;;;26.80;64.90;;;;;;5002488;28;21088;-70
2023/09/17 12:07:26;;;;;;;7.80;4.03;;;26.70;65.20;;;;;;5005225;28;20468;-70
2023/09/17 12:10:14;;;;;;;12.97;5.67;;;26.70;65.40;;;;;;5005604;28;20451;-70
2023/09/17 12:13:00;;;;;;;8.40;4.73;;;26.70;67.60;;;;;;5008755;28;20448;-71
2023/09/17 12:15:48;;;;;;;12.60;4.83;;;26.70;65.60;;;;;;5005672;28;21012;-70
2023/09/17 12:18:33;;;;;;;9.00;4.97;;;26.70;70.10;;;;;;5007959;28;20562;-71
2023/09/17 12:21:20;;;;;;;11.33;4.43;;;26.70;65.20;;;;;;5004245;28;20447;-70
2023/09/17 12:24:08;;;;;;;8.37;4.17;;;26.70;64.30;;;;;;5005485;28;21037;-70
2023/09/17 12:27:19;;;;;;;8.10;4.10;;;26.80;68.50;;;;;;5003003;28;20489;-70
2023/09/17 12:30:08;;;;;;;12.63;4.97;;;26.80;67.60;;;;;;4998258;28;20821;-70
2023/09/17 12:32:54;;;;;;;7.73;4.07;;;26.90;63.60;;;;;;5001447;28;21066;-70
2023/09/17 12:35:42;;;;;;;8.07;4.67;;;26.90;62.20;;;;;;5003223;28;20460;-70
2023/09/17 12:38:32;;;;;;;7.30;4.70;;;27.00;61.50;;;;;;5000902;28;20479;-71
2023/09/17 12:41:17;;;;;;;17.40;5.07;;;27.10;64.60;;;;;;4998907;28;20444;-69
2023/09/17 12:44:03;;;;;;;14.83;4.50;;;27.10;62.30;;;;;;5003820;28;20466;-70
2023/09/17 12:46:49;;;;;;;18.50;4.50;;;27.20;63.00;;;;;;5000469;28;21041;-70
2023/09/17 12:49:35;;;;;;;10.00;4.40;;;27.20;58.90;;;;;;5004951;28;20441;-70
2023/09/17 12:52:21;;;;;;;8.63;4.50;;;27.30;61.60;;;;;;5003415;28;20449;-70
2023/09/17 12:55:08;;;;;;;9.40;4.20;;;27.40;55.90;;;;;;5005777;28;20464;-70
2023/09/17 12:57:53;;;;;;;11.50;4.03;;;27.50;54.90;;;;;;4987334;28;20482;-70
2023/09/17 13:00:39;;;;;;;15.43;4.10;;;27.60;56.20;;;;;;4996469;28;20485;-71
2023/09/17 13:03:25;;;;;;;10.80;4.40;;;27.80;51.70;;;;;;5007573;28;20495;-71
2023/09/17 13:06:11;;;;;;;11.17;3.90;;;27.90;50.10;;;;;;5007943;28;20480;-70
2023/09/17 13:08:57;;;;;;;10.87;4.10;;;28.00;43.70;;;;;;4996601;28;20465;-70
2023/09/17 13:11:44;;;;;;;14.33;3.40;;;28.10;38.80;;;;;;5001502;28;20501;-70
2023/09/17 13:14:32;;;;;;;7.93;4.10;;;28.20;39.20;;;;;;4992093;28;20450;-70
2023/09/17 13:17:18;;;;;;;8.87;3.90;;;28.40;36.60;;;;;;4999322;28;20453;-70
2023/09/17 13:20:04;;;;;;;10.93;4.13;;;28.40;37.00;;;;;;4995464;28;20544;-70
2023/09/17 13:22:50;;;;;;;14.83;4.23;;;28.50;41.00;;;;;;4998072;28;21074;-70
2023/09/17 13:25:35;;;;;;;10.03;3.47;;;28.60;41.10;;;;;;4999277;28;20441;-70
2023/09/17 13:28:23;;;;;;;8.50;3.80;;;28.70;38.80;;;;;;5000584;28;20866;-70
2023/09/17 13:31:10;;;;;;;7.37;3.90;;;28.70;33.50;;;;;;4994996;28;20447;-70
2023/09/17 13:33:57;;;;;;;8.37;3.87;;;28.60;35.30;;;;;;4991967;28;20455;-70
2023/09/17 13:36:42;;;;;;;12.10;4.70;;;28.70;37.10;;;;;;4996320;28;20534;-70
2023/09/17 13:39:28;;;;;;;11.23;3.33;;;28.80;41.00;;;;;;4999589;28;20849;-70
2023/09/17 13:42:14;;;;;;;15.00;4.57;;;29.00;38.90;;;;;;5002174;28;20536;-70
2023/09/17 13:45:01;;;;;;;17.90;3.97;;;29.00;34.70;;;;;;5006031;28;20560;-69
2023/09/17 13:47:46;;;;;;;10.20;4.50;;;28.90;30.00;;;;;;5001164;28;20484;-70
2023/09/17 13:50:32;;;;;;;11.93;3.70;;;28.80;28.80;;;;;;5000905;28;21142;-70
2023/09/17 13:53:19;;;;;;;9.47;4.10;;;28.90;33.20;;;;;;5005633;28;20488;-70
2023/09/17 13:56:05;;;;;;;8.37;4.23;;;28.90;33.70;;;;;;4997566;28;20606;-70
2023/09/17 13:58:51;;;;;;;7.07;3.67;;;28.80;34.00;;;;;;5003523;28;20833;-70
2023/09/17 14:01:40;;;;;;;7.07;3.73;;;28.60;31.60;;;;;;4998277;28;20502;-70
2023/09/17 14:04:26;;;;;;;14.23;4.77;;;28.60;36.80;;;;;;4997522;28;21015;-70
2023/09/17 14:07:11;;;;;;;12.83;4.27;;;28.50;35.90;;;;;;4997367;28;20472;-70
2023/09/17 14:09:57;;;;;;;14.43;3.93;;;28.60;34.20;;;;;;5000926;28;20520;-70
2023/09/17 14:12:43;;;;;;;12.40;3.83;;;28.80;35.50;;;;;;5005383;28;20426;-70
2023/09/17 14:15:29;;;;;;;15.50;3.87;;;29.00;32.30;;;;;;5008142;28;20562;-70
2023/09/17 14:18:16;;;;;;;9.40;3.87;;;29.20;29.10;;;;;;4996408;28;20822;-70
2023/09/17 14:21:03;;;;;;;13.20;4.03;;;29.30;33.30;;;;;;4997933;28;20440;-70
2023/09/17 14:23:48;;;;;;;9.87;3.33;;;29.40;34.10;;;;;;4995280;28;20449;-70